PWSweather.com
Personal Weather Stations
Station Observations
RIORANCHO
Corrales Heights, Rio Rancho, NM 87124

Corrales HeightsRio Rancho, NM 87124

Lat: 35.241928, Lon: -106.647095

Elevation: 5297

Station Type: Davis Vantage Pro 2 Plus

http://www.weatherriorancho.com

High Low Average
Temperature 56.9°F13.8°C 27.1°F-2.7°C 38.1°F3.4°C
Dew Point 24.4°F-4.2°C 18.1°F-7.7°C 21.6°F-5.8°C
Winds 8.1 mph 13.0 kmh Calm Calm 1.0 mph SW1.6 kmh SW
Wind Gusts 11.5 mph18.5 kmh -- 2.0 mph3.2 kmh
Humidity 72% 28% 54%
Pressure 30.37 in1028.4 mb 30.15 in1021.0 mb -
Precipitation 0.00 in0.0 mm - -
Hour Temp Dew Point Humidity Winds Wind Gusts Pressure Precip Precip Rate Daily Precip Total
12:00 AM 38.9°F3.8°C 22.8°F-5.1°C 52% Calm Calm -- 30.26 in1024.7 mb - 0.00 in0.0 mm 0.00 in0.0 mm
12:10 AM 38.5°F3.6°C 22.4°F-5.3°C 52% Calm Calm 1.2 mph1.9 kmh 30.26 in1024.7 mb - 0.00 in0.0 mm 0.00 in0.0 mm
12:20 AM 37.7°F3.2°C 22.1°F-5.5°C 53% Calm Calm -- 30.26 in1024.7 mb - 0.00 in0.0 mm 0.00 in0.0 mm
12:30 AM 37.1°F2.8°C 21.5°F-5.8°C 53% Calm Calm -- 30.26 in1024.7 mb - 0.00 in0.0 mm 0.00 in0.0 mm
12:40 AM 36.5°F2.5°C 21.4°F-5.9°C 54% Calm Calm -- 30.26 in1024.7 mb - 0.00 in0.0 mm 0.00 in0.0 mm
12:50 AM 35.7°F2.1°C 21.1°F-6.1°C 55% Calm Calm -- 30.25 in1024.4 mb - 0.00 in0.0 mm 0.00 in0.0 mm
01:00 AM 34.9°F1.6°C 21.2°F-6.0°C 57% Calm Calm -- 30.26 in1024.7 mb - 0.00 in0.0 mm 0.00 in0.0 mm
01:10 AM 34.4°F1.3°C 20.7°F-6.3°C 57% Calm Calm 1.2 mph1.9 kmh 30.26 in1024.7 mb - 0.00 in0.0 mm 0.00 in0.0 mm
01:20 AM 33.9°F1.1°C 20.7°F-6.3°C 58% Calm Calm -- 30.26 in1024.7 mb - 0.00 in0.0 mm 0.00 in0.0 mm
01:30 AM 33.5°F0.8°C 21.1°F-6.1°C 60% Calm Calm 1.2 mph1.9 kmh 30.26 in1024.7 mb - 0.00 in0.0 mm 0.00 in0.0 mm
01:40 AM 33.4°F0.8°C 21.4°F-5.9°C 61% 1.2 mph W1.9 kmh W 2.3 mph3.7 kmh 30.25 in1024.4 mb - 0.00 in0.0 mm 0.00 in0.0 mm
01:50 AM 33.8°F1.0°C 21.0°F-6.1°C 59% Calm Calm -- 30.25 in1024.4 mb - 0.00 in0.0 mm 0.00 in0.0 mm
02:00 AM 33.9°F1.1°C 20.6°F-6.3°C 58% Calm Calm -- 30.25 in1024.4 mb - 0.00 in0.0 mm 0.00 in0.0 mm
02:10 AM 33.6°F0.9°C 20.4°F-6.4°C 58% Calm Calm -- 30.25 in1024.4 mb - 0.00 in0.0 mm 0.00 in0.0 mm
02:20 AM 33.3°F0.7°C 20.5°F-6.4°C 59% Calm Calm -- 30.25 in1024.4 mb - 0.00 in0.0 mm 0.00 in0.0 mm
02:30 AM 32.9°F0.5°C 20.1°F-6.6°C 59% Calm Calm -- 30.25 in1024.4 mb - 0.00 in0.0 mm 0.00 in0.0 mm
02:40 AM 32.4°F0.2°C 19.7°F-6.8°C 59% Calm Calm -- 30.25 in1024.4 mb - 0.00 in0.0 mm 0.00 in0.0 mm
02:50 AM 31.5°F-0.3°C 19.2°F-7.1°C 60% Calm Calm -- 30.25 in1024.4 mb - 0.00 in0.0 mm 0.00 in0.0 mm
03:00 AM 31.0°F-0.6°C 18.8°F-7.3°C 60% Calm Calm -- 30.25 in1024.4 mb - 0.00 in0.0 mm 0.00 in0.0 mm
03:10 AM 30.4°F-0.9°C 18.5°F-7.5°C 61% Calm Calm -- 30.25 in1024.4 mb - 0.00 in0.0 mm 0.00 in0.0 mm
03:20 AM 29.8°F-1.2°C 18.3°F-7.6°C 62% Calm Calm -- 30.24 in1024.0 mb - 0.00 in0.0 mm 0.00 in0.0 mm
03:30 AM 29.4°F-1.4°C 18.3°F-7.6°C 63% Calm Calm -- 30.24 in1024.0 mb - 0.00 in0.0 mm 0.00 in0.0 mm
03:40 AM 29.0°F-1.7°C 18.3°F-7.6°C 64% Calm Calm -- 30.24 in1024.0 mb - 0.00 in0.0 mm 0.00 in0.0 mm
03:50 AM 28.8°F-1.8°C 18.1°F-7.7°C 64% Calm Calm -- 30.24 in1024.0 mb - 0.00 in0.0 mm 0.00 in0.0 mm
04:00 AM 28.5°F-1.9°C 18.2°F-7.7°C 65% Calm Calm -- 30.23 in1023.7 mb - 0.00 in0.0 mm 0.00 in0.0 mm
04:10 AM 28.3°F-2.1°C 18.4°F-7.6°C 66% Calm Calm -- 30.23 in1023.7 mb - 0.00 in0.0 mm 0.00 in0.0 mm
04:20 AM 28.0°F-2.2°C 18.5°F-7.5°C 67% Calm Calm -- 30.23 in1023.7 mb - 0.00 in0.0 mm 0.00 in0.0 mm
04:30 AM 27.8°F-2.3°C 18.6°F-7.4°C 68% Calm Calm -- 30.23 in1023.7 mb - 0.00 in0.0 mm 0.00 in0.0 mm
04:40 AM 27.6°F-2.4°C 18.4°F-7.6°C 68% Calm Calm -- 30.23 in1023.7 mb - 0.00 in0.0 mm 0.00 in0.0 mm
04:50 AM 27.5°F-2.5°C 18.3°F-7.6°C 68% Calm Calm -- 30.23 in1023.7 mb - 0.00 in0.0 mm 0.00 in0.0 mm
05:00 AM 27.3°F-2.6°C 18.5°F-7.5°C 69% Calm Calm -- 30.23 in1023.7 mb - 0.00 in0.0 mm 0.00 in0.0 mm
05:10 AM 27.1°F-2.7°C 18.3°F-7.6°C 69% Calm Calm -- 30.23 in1023.7 mb - 0.00 in0.0 mm 0.00 in0.0 mm
05:20 AM 28.1°F-2.2°C 20.2°F-6.6°C 72% Calm Calm -- 30.23 in1023.7 mb - 0.00 in0.0 mm 0.00 in0.0 mm
05:30 AM 28.8°F-1.8°C 20.2°F-6.6°C 70% Calm Calm 3.5 mph5.6 kmh 30.23 in1023.7 mb - 0.00 in0.0 mm 0.00 in0.0 mm
05:40 AM 28.8°F-1.8°C 20.3°F-6.5°C 70% Calm Calm -- 30.23 in1023.7 mb - 0.00 in0.0 mm 0.00 in0.0 mm
05:50 AM 28.8°F-1.8°C 20.2°F-6.6°C 70% Calm Calm 1.2 mph1.9 kmh 30.23 in1023.7 mb - 0.00 in0.0 mm 0.00 in0.0 mm
06:00 AM 28.8°F-1.8°C 20.6°F-6.3°C 71% 2.3 mph W3.7 kmh W 4.6 mph7.4 kmh 30.23 in1023.7 mb - 0.00 in0.0 mm 0.00 in0.0 mm
06:10 AM 29.1°F-1.6°C 20.5°F-6.4°C 70% 1.2 mph W1.9 kmh W 3.5 mph5.6 kmh 30.23 in1023.7 mb - 0.00 in0.0 mm 0.00 in0.0 mm
06:20 AM 29.5°F-1.4°C 20.6°F-6.3°C 69% 2.3 mph W3.7 kmh W 3.5 mph5.6 kmh 30.23 in1023.7 mb - 0.00 in0.0 mm 0.00 in0.0 mm
06:30 AM 29.7°F-1.3°C 20.1°F-6.6°C 67% 3.5 mph W5.6 kmh W 3.5 mph5.6 kmh 30.23 in1023.7 mb - 0.00 in0.0 mm 0.00 in0.0 mm
06:40 AM 29.8°F-1.2°C 19.8°F-6.8°C 66% 1.2 mph W1.9 kmh W 2.3 mph3.7 kmh 30.23 in1023.7 mb - 0.00 in0.0 mm 0.00 in0.0 mm
06:50 AM 29.8°F-1.2°C 19.8°F-6.8°C 66% Calm Calm 1.2 mph1.9 kmh 30.23 in1023.7 mb - 0.00 in0.0 mm 0.00 in0.0 mm
07:00 AM 29.7°F-1.3°C 19.7°F-6.8°C 66% Calm Calm -- 30.23 in1023.7 mb - 0.00 in0.0 mm 0.00 in0.0 mm
07:10 AM 29.8°F-1.2°C 19.8°F-6.8°C 66% Calm Calm 1.2 mph1.9 kmh 30.23 in1023.7 mb - 0.00 in0.0 mm 0.00 in0.0 mm
07:20 AM 29.8°F-1.2°C 19.8°F-6.8°C 66% Calm Calm 1.2 mph1.9 kmh 30.23 in1023.7 mb - 0.00 in0.0 mm 0.00 in0.0 mm
07:30 AM 30.1°F-1.1°C 20.1°F-6.6°C 66% 1.2 mph W1.9 kmh W 1.2 mph1.9 kmh 30.23 in1023.7 mb - 0.00 in0.0 mm 0.00 in0.0 mm
07:40 AM 30.4°F-0.9°C 20.4°F-6.4°C 66% Calm Calm 1.2 mph1.9 kmh 30.23 in1023.7 mb - 0.00 in0.0 mm 0.00 in0.0 mm
07:50 AM 30.4°F-0.9°C 20.4°F-6.4°C 66% Calm Calm -- 30.23 in1023.7 mb - 0.00 in0.0 mm 0.00 in0.0 mm
08:00 AM 30.5°F-0.8°C 20.8°F-6.2°C 67% Calm Calm 3.5 mph5.6 kmh 30.23 in1023.7 mb - 0.00 in0.0 mm 0.00 in0.0 mm
08:10 AM 30.7°F-0.7°C 20.7°F-6.3°C 66% Calm Calm 3.5 mph5.6 kmh 30.23 in1023.7 mb - 0.00 in0.0 mm 0.00 in0.0 mm
08:20 AM 30.8°F-0.7°C 20.8°F-6.2°C 66% Calm Calm 1.2 mph1.9 kmh 30.24 in1024.0 mb - 0.00 in0.0 mm 0.00 in0.0 mm
08:30 AM 31.3°F-0.4°C 21.3°F-5.9°C 66% Calm Calm 3.5 mph5.6 kmh 30.24 in1024.0 mb - 0.00 in0.0 mm 0.00 in0.0 mm
08:40 AM 31.7°F-0.2°C 21.3°F-5.9°C 65% Calm Calm 3.5 mph5.6 kmh 30.24 in1024.0 mb - 0.00 in0.0 mm 0.00 in0.0 mm
08:50 AM 31.7°F-0.2°C 20.5°F-6.4°C 63% Calm Calm 1.2 mph1.9 kmh 30.25 in1024.4 mb - 0.00 in0.0 mm 0.00 in0.0 mm
09:00 AM 31.1°F-0.5°C 19.6°F-6.9°C 62% Calm Calm -- 30.25 in1024.4 mb - 0.00 in0.0 mm 0.00 in0.0 mm
09:10 AM 31.8°F-0.1°C 19.9°F-6.7°C 61% Calm Calm 3.5 mph5.6 kmh 30.25 in1024.4 mb - 0.00 in0.0 mm 0.00 in0.0 mm
09:20 AM 32.9°F0.5°C 20.1°F-6.6°C 59% 1.2 mph WNW1.9 kmh WNW 3.5 mph5.6 kmh 30.25 in1024.4 mb - 0.00 in0.0 mm 0.00 in0.0 mm
09:30 AM 33.7°F0.9°C 20.5°F-6.4°C 58% 2.3 mph NW3.7 kmh NW 5.8 mph9.3 kmh 30.25 in1024.4 mb - 0.00 in0.0 mm 0.00 in0.0 mm
09:40 AM 34.6°F1.4°C 20.5°F-6.4°C 56% 1.2 mph N1.9 kmh N 2.3 mph3.7 kmh 30.25 in1024.4 mb - 0.00 in0.0 mm 0.00 in0.0 mm
09:50 AM 36.2°F2.3°C 21.2°F-6.0°C 54% 1.2 mph N1.9 kmh N 3.5 mph5.6 kmh 30.25 in1024.4 mb - 0.00 in0.0 mm 0.00 in0.0 mm
10:00 AM 37.8°F3.2°C 21.8°F-5.7°C 52% Calm Calm 1.2 mph1.9 kmh 30.26 in1024.7 mb - 0.00 in0.0 mm 0.00 in0.0 mm
10:10 AM 39.2°F4.0°C 22.1°F-5.5°C 50% Calm Calm -- 30.26 in1024.7 mb - 0.00 in0.0 mm 0.00 in0.0 mm
10:20 AM 40.5°F4.7°C 22.4°F-5.3°C 48% Calm Calm -- 30.26 in1024.7 mb - 0.00 in0.0 mm 0.00 in0.0 mm
10:30 AM 41.7°F5.4°C 22.9°F-5.1°C 47% Calm Calm 2.3 mph3.7 kmh 30.26 in1024.7 mb - 0.00 in0.0 mm 0.00 in0.0 mm
10:40 AM 43.0°F6.1°C 22.5°F-5.3°C 44% Calm Calm 2.3 mph3.7 kmh 30.26 in1024.7 mb - 0.00 in0.0 mm 0.00 in0.0 mm
10:50 AM 44.1°F6.7°C 22.4°F-5.3°C 42% Calm Calm 1.2 mph1.9 kmh 30.26 in1024.7 mb - 0.00 in0.0 mm 0.00 in0.0 mm
11:00 AM 44.8°F7.1°C 21.9°F-5.6°C 40% Calm Calm -- 30.25 in1024.4 mb - 0.00 in0.0 mm 0.00 in0.0 mm
11:10 AM 45.3°F7.4°C 21.8°F-5.7°C 39% Calm Calm -- 30.25 in1024.4 mb - 0.00 in0.0 mm 0.00 in0.0 mm
11:20 AM 45.6°F7.6°C 22.0°F-5.6°C 39% Calm Calm -- 30.25 in1024.4 mb - 0.00 in0.0 mm 0.00 in0.0 mm
11:30 AM 47.0°F8.3°C 22.0°F-5.6°C 37% Calm Calm -- 30.24 in1024.0 mb - 0.00 in0.0 mm 0.00 in0.0 mm
11:40 AM 47.3°F8.5°C 22.9°F-5.1°C 38% Calm Calm -- 30.23 in1023.7 mb - 0.00 in0.0 mm 0.00 in0.0 mm
11:50 AM 48.6°F9.2°C 22.8°F-5.1°C 36% Calm Calm -- 30.22 in1023.4 mb - 0.00 in0.0 mm 0.00 in0.0 mm
12:00 PM 49.6°F9.8°C 23.7°F-4.6°C 36% Calm Calm -- 30.21 in1023.0 mb - 0.00 in0.0 mm 0.00 in0.0 mm
12:10 PM 50.8°F10.4°C 24.1°F-4.4°C 35% Calm Calm -- 30.21 in1023.0 mb - 0.00 in0.0 mm 0.00 in0.0 mm
12:20 PM 51.4°F10.8°C 23.2°F-4.9°C 33% Calm Calm -- 30.20 in1022.7 mb - 0.00 in0.0 mm 0.00 in0.0 mm
12:30 PM 51.9°F11.1°C 23.7°F-4.6°C 33% Calm Calm -- 30.20 in1022.7 mb - 0.00 in0.0 mm 0.00 in0.0 mm
12:40 PM 53.4°F11.9°C 23.5°F-4.7°C 31% Calm Calm -- 30.19 in1022.4 mb - 0.00 in0.0 mm 0.00 in0.0 mm
12:50 PM 54.6°F12.6°C 23.0°F-5.0°C 29% Calm Calm -- 30.19 in1022.4 mb - 0.00 in0.0 mm 0.00 in0.0 mm
01:00 PM 54.1°F12.3°C 23.3°F-4.8°C 30% Calm Calm -- 30.18 in1022.0 mb - 0.00 in0.0 mm 0.00 in0.0 mm
01:10 PM 54.5°F12.5°C 23.7°F-4.6°C 30% Calm Calm -- 30.18 in1022.0 mb - 0.00 in0.0 mm 0.00 in0.0 mm
01:20 PM 55.0°F12.8°C 23.3°F-4.8°C 29% Calm Calm -- 30.18 in1022.0 mb - 0.00 in0.0 mm 0.00 in0.0 mm
01:30 PM 55.0°F12.8°C 24.1°F-4.4°C 30% Calm Calm -- 30.17 in1021.7 mb - 0.00 in0.0 mm 0.00 in0.0 mm
01:40 PM 56.1°F13.4°C 24.2°F-4.3°C 29% Calm Calm -- 30.17 in1021.7 mb - 0.00 in0.0 mm 0.00 in0.0 mm
01:50 PM 56.9°F13.8°C 24.1°F-4.4°C 28% Calm Calm -- 30.17 in1021.7 mb - 0.00 in0.0 mm 0.00 in0.0 mm
02:00 PM 56.4°F13.6°C 23.6°F-4.7°C 28% Calm Calm -- 30.16 in1021.3 mb - 0.00 in0.0 mm 0.00 in0.0 mm
02:10 PM 56.0°F13.3°C 24.1°F-4.4°C 29% Calm Calm -- 30.16 in1021.3 mb - 0.00 in0.0 mm 0.00 in0.0 mm
02:20 PM 56.9°F13.8°C 24.1°F-4.4°C 28% Calm Calm -- 30.16 in1021.3 mb - 0.00 in0.0 mm 0.00 in0.0 mm
02:30 PM 56.9°F13.8°C 24.1°F-4.4°C 28% Calm Calm -- 30.16 in1021.3 mb - 0.00 in0.0 mm 0.00 in0.0 mm
02:40 PM 55.1°F12.8°C 23.4°F-4.8°C 29% Calm Calm -- 30.16 in1021.3 mb - 0.00 in0.0 mm 0.00 in0.0 mm
02:50 PM 54.1°F12.3°C 23.3°F-4.8°C 30% Calm Calm -- 30.16 in1021.3 mb - 0.00 in0.0 mm 0.00 in0.0 mm
03:00 PM 53.0°F11.7°C 22.3°F-5.4°C 30% Calm Calm -- 30.16 in1021.3 mb - 0.00 in0.0 mm 0.00 in0.0 mm
03:10 PM 53.3°F11.8°C 22.6°F-5.2°C 30% Calm Calm -- 30.16 in1021.3 mb - 0.00 in0.0 mm 0.00 in0.0 mm
03:20 PM 53.6°F12.0°C 22.8°F-5.1°C 30% Calm Calm -- 30.15 in1021.0 mb - 0.00 in0.0 mm 0.00 in0.0 mm
03:30 PM 53.0°F11.7°C 23.1°F-4.9°C 31% Calm Calm 4.6 mph7.4 kmh 30.16 in1021.3 mb - 0.00 in0.0 mm 0.00 in0.0 mm
03:40 PM 51.7°F10.9°C 24.2°F-4.3°C 34% 2.3 mph SE3.7 kmh SE 3.5 mph5.6 kmh 30.16 in1021.3 mb - 0.00 in0.0 mm 0.00 in0.0 mm
03:50 PM 50.9°F10.5°C 24.2°F-4.3°C 35% 1.2 mph SSE1.9 kmh SSE 6.9 mph11.1 kmh 30.17 in1021.7 mb - 0.00 in0.0 mm 0.00 in0.0 mm
04:00 PM 50.0°F10.0°C 24.1°F-4.4°C 36% 1.2 mph SE1.9 kmh SE 4.6 mph7.4 kmh 30.17 in1021.7 mb - 0.00 in0.0 mm 0.00 in0.0 mm
04:10 PM 49.6°F9.8°C 24.4°F-4.2°C 37% 1.2 mph SE1.9 kmh SE 1.2 mph1.9 kmh 30.17 in1021.7 mb - 0.00 in0.0 mm 0.00 in0.0 mm
04:20 PM 49.3°F9.6°C 24.1°F-4.4°C 37% Calm Calm -- 30.17 in1021.7 mb - 0.00 in0.0 mm 0.00 in0.0 mm
04:30 PM 48.8°F9.3°C 23.6°F-4.7°C 37% 1.2 mph SSE1.9 kmh SSE 3.5 mph5.6 kmh 30.18 in1022.0 mb - 0.00 in0.0 mm 0.00 in0.0 mm
04:40 PM 48.4°F9.1°C 23.9°F-4.5°C 38% 2.3 mph SSE3.7 kmh SSE 4.6 mph7.4 kmh 30.18 in1022.0 mb - 0.00 in0.0 mm 0.00 in0.0 mm
04:50 PM 48.0°F8.9°C 24.2°F-4.3°C 39% 1.2 mph S1.9 kmh S 2.3 mph3.7 kmh 30.18 in1022.0 mb - 0.00 in0.0 mm 0.00 in0.0 mm
05:00 PM 47.5°F8.6°C 23.8°F-4.6°C 39% 1.2 mph S1.9 kmh S 3.5 mph5.6 kmh 30.18 in1022.0 mb - 0.00 in0.0 mm 0.00 in0.0 mm
05:10 PM 47.0°F8.3°C 23.9°F-4.5°C 40% Calm Calm 3.5 mph5.6 kmh 30.19 in1022.4 mb - 0.00 in0.0 mm 0.00 in0.0 mm
05:20 PM 46.4°F8.0°C 23.4°F-4.8°C 40% 1.2 mph S1.9 kmh S 3.5 mph5.6 kmh 30.19 in1022.4 mb - 0.00 in0.0 mm 0.00 in0.0 mm
05:30 PM 45.8°F7.7°C 23.4°F-4.8°C 41% 3.5 mph S5.6 kmh S 5.8 mph9.3 kmh 30.20 in1022.7 mb - 0.00 in0.0 mm 0.00 in0.0 mm
05:40 PM 45.1°F7.3°C 23.4°F-4.8°C 42% 1.2 mph W1.9 kmh W 3.5 mph5.6 kmh 30.21 in1023.0 mb - 0.00 in0.0 mm 0.00 in0.0 mm
05:50 PM 44.8°F7.1°C 23.0°F-5.0°C 42% 1.2 mph W1.9 kmh W 3.5 mph5.6 kmh 30.22 in1023.4 mb - 0.00 in0.0 mm 0.00 in0.0 mm
06:00 PM 43.6°F6.4°C 22.5°F-5.3°C 43% 2.3 mph NW3.7 kmh NW 4.6 mph7.4 kmh 30.22 in1023.4 mb - 0.00 in0.0 mm 0.00 in0.0 mm
06:10 PM 41.8°F5.4°C 22.5°F-5.3°C 46% 5.8 mph WNW9.3 kmh WNW 8.1 mph13.0 kmh 30.23 in1023.7 mb - 0.00 in0.0 mm 0.00 in0.0 mm
06:20 PM 40.5°F4.7°C 22.4°F-5.3°C 48% 3.5 mph WNW5.6 kmh WNW 6.9 mph11.1 kmh 30.23 in1023.7 mb - 0.00 in0.0 mm 0.00 in0.0 mm
06:30 PM 39.5°F4.2°C 22.4°F-5.3°C 50% 5.8 mph WNW9.3 kmh WNW 8.1 mph13.0 kmh 30.23 in1023.7 mb - 0.00 in0.0 mm 0.00 in0.0 mm
06:40 PM 38.7°F3.7°C 22.6°F-5.2°C 52% 2.3 mph WNW3.7 kmh WNW 2.3 mph3.7 kmh 30.23 in1023.7 mb - 0.00 in0.0 mm 0.00 in0.0 mm
06:50 PM 38.1°F3.4°C 22.5°F-5.3°C 53% 4.6 mph WNW7.4 kmh WNW 8.1 mph13.0 kmh 30.24 in1024.0 mb - 0.00 in0.0 mm 0.00 in0.0 mm
07:00 PM 37.6°F3.1°C 22.4°F-5.3°C 54% 2.3 mph WNW3.7 kmh WNW 5.8 mph9.3 kmh 30.24 in1024.0 mb - 0.00 in0.0 mm 0.00 in0.0 mm
07:10 PM 36.9°F2.7°C 22.7°F-5.2°C 56% 3.5 mph WNW5.6 kmh WNW 8.1 mph13.0 kmh 30.24 in1024.0 mb - 0.00 in0.0 mm 0.00 in0.0 mm
07:20 PM 36.2°F2.3°C 22.5°F-5.3°C 57% 4.6 mph NW7.4 kmh NW 5.8 mph9.3 kmh 30.25 in1024.4 mb - 0.00 in0.0 mm 0.00 in0.0 mm
07:30 PM 35.7°F2.1°C 22.3°F-5.4°C 58% 5.8 mph NW9.3 kmh NW 11.5 mph18.5 kmh 30.26 in1024.7 mb - 0.00 in0.0 mm 0.00 in0.0 mm
07:40 PM 35.2°F1.8°C 22.3°F-5.4°C 59% 8.1 mph NW13.0 kmh NW 10.4 mph16.7 kmh 30.26 in1024.7 mb - 0.00 in0.0 mm 0.00 in0.0 mm
07:50 PM 34.8°F1.6°C 22.3°F-5.4°C 60% 5.8 mph NW9.3 kmh NW 8.1 mph13.0 kmh 30.26 in1024.7 mb - 0.00 in0.0 mm 0.00 in0.0 mm
08:00 PM 34.4°F1.3°C 22.3°F-5.4°C 61% 3.5 mph NNW5.6 kmh NNW 4.6 mph7.4 kmh 30.27 in1025.1 mb - 0.00 in0.0 mm 0.00 in0.0 mm
08:10 PM 33.9°F1.1°C 22.3°F-5.4°C 62% 4.6 mph N7.4 kmh N 9.2 mph14.8 kmh 30.27 in1025.1 mb - 0.00 in0.0 mm 0.00 in0.0 mm
08:20 PM 33.7°F0.9°C 22.4°F-5.3°C 63% 5.8 mph N9.3 kmh N 11.5 mph18.5 kmh 30.27 in1025.1 mb - 0.00 in0.0 mm 0.00 in0.0 mm
08:30 PM 33.4°F0.8°C 22.5°F-5.3°C 64% 3.5 mph N5.6 kmh N 8.1 mph13.0 kmh 30.28 in1025.4 mb - 0.00 in0.0 mm 0.00 in0.0 mm
08:40 PM 33.2°F0.7°C 22.3°F-5.4°C 64% 5.8 mph N9.3 kmh N 11.5 mph18.5 kmh 30.29 in1025.7 mb - 0.00 in0.0 mm 0.00 in0.0 mm
08:50 PM 32.9°F0.5°C 22.4°F-5.3°C 65% 1.2 mph N1.9 kmh N 3.5 mph5.6 kmh 30.29 in1025.7 mb - 0.00 in0.0 mm 0.00 in0.0 mm
09:00 PM 32.6°F0.3°C 22.5°F-5.3°C 66% 1.2 mph N1.9 kmh N -- 30.29 in1025.7 mb - 0.00 in0.0 mm 0.00 in0.0 mm
09:10 PM 32.3°F0.2°C 22.2°F-5.4°C 66% Calm Calm 1.2 mph1.9 kmh 30.30 in1026.1 mb - 0.00 in0.0 mm 0.00 in0.0 mm
09:20 PM 32.1°F0.1°C 22.0°F-5.6°C 66% Calm Calm -- 30.30 in1026.1 mb - 0.00 in0.0 mm 0.00 in0.0 mm
09:30 PM 32.0°F0.0°C 21.9°F-5.6°C 66% Calm Calm -- 30.31 in1026.4 mb - 0.00 in0.0 mm 0.00 in0.0 mm
09:40 PM 31.7°F-0.2°C 21.7°F-5.7°C 66% Calm Calm -- 30.32 in1026.8 mb - 0.00 in0.0 mm 0.00 in0.0 mm
09:50 PM 31.5°F-0.3°C 21.8°F-5.7°C 67% Calm Calm -- 30.32 in1026.8 mb - 0.00 in0.0 mm 0.00 in0.0 mm
10:00 PM 31.6°F-0.2°C 22.2°F-5.4°C 68% Calm Calm 3.5 mph5.6 kmh 30.33 in1027.1 mb - 0.00 in0.0 mm 0.00 in0.0 mm
10:10 PM 31.5°F-0.3°C 22.1°F-5.5°C 68% 3.5 mph SW5.6 kmh SW 4.6 mph7.4 kmh 30.33 in1027.1 mb - 0.00 in0.0 mm 0.00 in0.0 mm
10:20 PM 31.5°F-0.3°C 22.1°F-5.5°C 68% 1.2 mph WSW1.9 kmh WSW 3.5 mph5.6 kmh 30.33 in1027.1 mb - 0.00 in0.0 mm 0.00 in0.0 mm
10:30 PM 31.2°F-0.4°C 21.9°F-5.6°C 68% Calm Calm 1.2 mph1.9 kmh 30.34 in1027.4 mb - 0.00 in0.0 mm 0.00 in0.0 mm
10:40 PM 31.0°F-0.6°C 21.7°F-5.7°C 68% 2.3 mph WSW3.7 kmh WSW 5.8 mph9.3 kmh 30.34 in1027.4 mb - 0.00 in0.0 mm 0.00 in0.0 mm
10:50 PM 30.6°F-0.8°C 21.3°F-5.9°C 68% 2.3 mph WSW3.7 kmh WSW 5.8 mph9.3 kmh 30.34 in1027.4 mb - 0.00 in0.0 mm 0.00 in0.0 mm
11:00 PM 29.9°F-1.2°C 21.0°F-6.1°C 69% 1.2 mph W1.9 kmh W 8.1 mph13.0 kmh 30.35 in1027.8 mb - 0.00 in0.0 mm 0.00 in0.0 mm
11:10 PM 29.4°F-1.4°C 20.8°F-6.2°C 70% 3.5 mph W5.6 kmh W 4.6 mph7.4 kmh 30.35 in1027.8 mb - 0.00 in0.0 mm 0.00 in0.0 mm
11:20 PM 29.1°F-1.6°C 20.5°F-6.4°C 70% 3.5 mph NW5.6 kmh NW 6.9 mph11.1 kmh 30.36 in1028.1 mb - 0.00 in0.0 mm 0.00 in0.0 mm
11:30 PM 28.8°F-1.8°C 20.2°F-6.6°C 70% Calm Calm 3.5 mph5.6 kmh 30.36 in1028.1 mb - 0.00 in0.0 mm 0.00 in0.0 mm
11:40 PM 28.4°F-2.0°C 19.9°F-6.7°C 70% 1.2 mph NW1.9 kmh NW 3.5 mph5.6 kmh 30.36 in1028.1 mb - 0.00 in0.0 mm 0.00 in0.0 mm
11:50 PM 28.0°F-2.2°C 19.5°F-6.9°C 70% 1.2 mph NW1.9 kmh NW 5.8 mph9.3 kmh 30.37 in1028.4 mb - 0.00 in0.0 mm 0.00 in0.0 mm